Time;durP1;ratioP1;P1;durP2;ratioP2;P2;SDS_P1;SDS_P2;PMS_P1;PMS_P2;Temp;Humidity;BMP_temperature;BMP_pressure;BME280_temperature;BME280_humidity;BME280_pressure;Samples;Min_cycle;Max_cycle;Signal;HPM_P1;HPM_P2
2022/06/07 00:01:07;;;;;;;;;26.00;25.67;;;;;16.98;100.00;99457.38;6281468;20;3596052;-59
2022/06/07 00:03:36;;;;;;;;;16.67;16.33;;;;;16.76;100.00;99461.13;6282365;20;3555591;-59
2022/06/07 00:06:05;;;;;;;;;28.33;26.33;;;;;16.88;100.00;99457.34;6286306;20;3587729;-60
2022/06/07 00:08:35;;;;;;;;;24.00;21.67;;;;;17.27;100.00;99461.91;6286543;20;2851026;-61
2022/06/07 00:11:04;;;;;;;;;21.67;20.67;;;;;17.39;98.48;99455.34;6318400;20;3584599;-63
2022/06/07 00:13:33;;;;;;;;;26.33;25.33;;;;;17.44;97.75;99453.06;6289253;20;3595020;-60
2022/06/07 00:16:01;;;;;;;;;23.67;22.33;;;;;17.37;98.23;99454.63;6285883;20;3578355;-59
2022/06/07 00:18:30;;;;;;;;;23.33;23.33;;;;;17.41;98.04;99455.22;6288394;20;3575260;-59
2022/06/07 00:21:01;;;;;;;;;23.00;21.67;;;;;17.05;99.91;99454.94;6282080;20;2835804;-63
2022/06/07 00:23:32;;;;;;;;;25.67;23.67;;;;;16.86;100.00;99453.91;6319797;20;3589875;-59
2022/06/07 00:26:02;;;;;;;;;26.67;22.33;;;;;17.01;100.00;99453.47;6287860;20;3584680;-60
2022/06/07 00:28:31;;;;;;;;;21.00;21.00;;;;;17.08;100.00;99457.34;6286548;20;2828619;-63
2022/06/07 00:31:00;;;;;;;;;20.00;20.00;;;;;17.06;100.00;99453.91;6281420;20;2831745;-63
2022/06/07 00:33:29;;;;;;;;;18.00;18.00;;;;;17.08;100.00;99458.19;6281899;20;2841990;-59
2022/06/07 00:35:58;;;;;;;;;26.00;26.00;;;;;17.03;100.00;99448.78;6285554;20;3595065;-63
2022/06/07 00:38:27;;;;;;;;;29.33;28.67;;;;;16.97;100.00;99454.78;6285835;20;3602460;-58
2022/06/07 00:40:55;;;;;;;;;28.67;26.00;;;;;16.88;100.00;99446.50;6288031;20;3575230;-60
2022/06/07 00:43:25;;;;;;;;;26.33;24.67;;;;;16.39;100.00;99453.59;6288383;20;3600481;-59
2022/06/07 00:45:58;;;;;;;;;24.67;23.33;;;;;16.08;100.00;99446.50;6282052;20;2845167;-60
2022/06/07 00:48:27;;;;;;;;;26.67;24.00;;;;;16.01;100.00;99438.91;6316352;20;3602738;-60
2022/06/07 00:51:06;;;;;;;;;25.67;25.00;;;;;15.77;100.00;99438.34;6278761;20;3593974;-61
2022/06/07 00:53:36;;;;;;;;;21.67;21.67;;;;;15.62;100.00;99445.09;6319614;20;3584603;-60
2022/06/07 00:56:06;;;;;;;;;26.33;22.33;;;;;15.67;100.00;99442.84;6284581;20;3591984;-60
2022/06/07 00:58:36;;;;;;;;;24.00;22.00;;;;;15.71;100.00;99439.75;6282452;20;2838871;-59
2022/06/07 01:01:05;;;;;;;;;25.67;22.33;;;;;15.58;100.00;99439.91;6313605;20;2837781;-63
2022/06/07 01:03:34;;;;;;;;;24.67;24.67;;;;;15.68;100.00;99433.72;6316734;20;3598158;-59
2022/06/07 01:11:37;;;;;;;;;25.67;24.33;;;;;15.55;100.00;99431.22;6286058;20;3590992;-60
2022/06/07 01:14:07;;;;;;;;;26.33;25.67;;;;;15.70;100.00;99431.78;6281876;20;3596116;-61
2022/06/07 01:16:36;;;;;;;;;28.67;27.33;;;;;16.01;100.00;99430.78;6315289;20;3597243;-59
2022/06/07 01:19:05;;;;;;;;;32.33;30.67;;;;;16.18;100.00;99432.00;6317038;20;3587740;-60
2022/06/07 01:21:37;;;;;;;;;32.33;31.00;;;;;16.09;100.00;99427.41;6286998;20;3596076;-60
2022/06/07 01:24:06;;;;;;;;;33.67;32.67;;;;;16.29;100.00;99424.75;6287010;20;3598249;-60
2022/06/07 01:26:35;;;;;;;;;40.00;33.67;;;;;16.36;100.00;99434.06;6288527;20;3597233;-59
2022/06/07 01:29:04;;;;;;;;;29.67;29.00;;;;;15.96;100.00;99422.22;6284061;20;3584579;-59
2022/06/07 01:31:34;;;;;;;;;41.00;33.33;;;;;15.80;100.00;99424.56;6282253;20;3580449;-63
2022/06/07 01:34:04;;;;;;;;;30.00;29.67;;;;;15.65;100.00;99418.59;6317661;20;3592011;-63
2022/06/07 01:36:34;;;;;;;;;35.67;28.67;;;;;15.95;100.00;99423.19;6286671;20;3604398;-63
2022/06/07 01:41:54;;;;;;;;;24.00;23.00;;;;;16.46;100.00;99419.56;6286946;20;3590259;-63
2022/06/07 01:44:31;;;;;;;;;29.67;28.00;;;;;16.51;100.00;99415.53;6287491;20;3602332;-59
2022/06/07 01:47:01;;;;;;;;;25.00;22.50;;;;;16.50;100.00;99421.97;6283555;20;2830489;-59
2022/06/07 01:49:30;;;;;;;;;27.00;22.67;;;;;16.33;100.00;99412.66;6284835;20;2841096;-59
2022/06/07 01:51:59;;;;;;;;;23.67;20.33;;;;;16.13;100.00;99414.44;6315165;20;3575384;-59
2022/06/07 01:54:28;;;;;;;;;27.00;22.50;;;;;16.06;100.00;99419.56;6281716;20;2850326;-59
2022/06/07 01:56:58;;;;;;;;;25.33;24.67;;;;;15.74;100.00;99406.13;6283906;20;2846218;-63
2022/06/07 01:59:27;;;;;;;;;22.67;22.67;;;;;15.51;100.00;99406.28;6315901;20;3585763;-63
2022/06/07 02:01:56;;;;;;;;;25.00;23.00;;;;;15.77;100.00;99408.56;6281400;20;2848197;-59
2022/06/07 02:04:25;;;;;;;;;21.00;17.00;;;;;15.81;100.00;99407.31;6287632;20;3559640;-58
2022/06/07 02:06:54;;;;;;;;;25.00;24.00;;;;;15.60;100.00;99404.59;6282969;20;2850377;-58
2022/06/07 02:09:23;;;;;;;;;25.00;23.67;;;;;15.25;100.00;99395.00;6310729;20;3594149;-59
2022/06/07 02:11:52;;;;;;;;;23.00;23.00;;;;;15.31;100.00;99402.56;6284871;20;3580618;-58
2022/06/07 02:14:21;;;;;;;;;27.50;24.00;;;;;15.23;100.00;99401.53;6277580;20;2852384;-58
2022/06/07 02:16:50;;;;;;;;;23.00;23.00;;;;;15.17;100.00;99402.06;6277824;20;2840904;-60
2022/06/07 02:19:19;;;;;;;;;24.00;21.00;;;;;15.05;100.00;99393.97;6280193;20;2843992;-61
2022/06/07 02:21:47;;;;;;;;;26.00;24.33;;;;;15.11;100.00;99392.59;6281965;20;3597101;-59
2022/06/07 02:24:16;;;;;;;;;18.00;18.00;;;;;15.46;100.00;99392.28;6281156;20;2833621;-62
2022/06/07 02:26:58;;;;;;;;;21.00;21.00;;;;;15.70;100.00;99386.59;6283271;20;2838819;-59
2022/06/07 02:29:36;;;;;;;;;23.00;21.00;;;;;15.70;100.00;99391.16;6281438;20;2832660;-58
2022/06/07 02:32:24;;;;;;;;;22.00;22.00;;;;;15.63;100.00;99389.94;6282477;20;2844009;-59
2022/06/07 02:34:58;;;;;;;;;26.67;24.00;;;;;15.44;100.00;99386.13;6313364;20;3572338;-64
2022/06/07 02:37:28;;;;;;;;;24.00;23.00;;;;;15.38;100.00;99386.69;6279254;20;2848234;-59
2022/06/07 02:39:58;;;;;;;;;23.00;23.00;;;;;15.41;100.00;99386.41;6281421;20;2842112;-60
2022/06/07 02:42:29;;;;;;;;;24.00;18.00;;;;;15.60;100.00;99385.66;6312694;20;2831592;-59
2022/06/07 02:44:59;;;;;;;;;21.33;21.33;;;;;15.78;100.00;99385.94;6282533;20;2852353;-59
2022/06/07 02:47:28;;;;;;;;;23.33;23.33;;;;;15.85;100.00;99381.72;6313736;20;3587828;-59
2022/06/07 02:49:58;;;;;;;;;21.00;20.00;;;;;15.59;100.00;99389.38;6280523;20;2834731;-59
2022/06/07 02:52:27;;;;;;;;;23.67;23.33;;;;;15.41;100.00;99389.13;6317403;20;3583588;-59
2022/06/07 02:54:56;;;;;;;;;26.67;24.33;;;;;15.18;100.00;99376.72;6280387;20;2856691;-59
2022/06/07 02:57:27;;;;;;;;;23.33;23.00;;;;;15.12;100.00;99381.66;6315806;20;3587772;-63
2022/06/07 02:59:56;;;;;;;;;23.00;22.00;;;;;14.98;100.00;99386.50;6280680;20;2846219;-62
2022/06/07 03:02:24;;;;;;;;;21.00;18.50;;;;;15.08;100.00;99379.34;6313317;20;2498191;-59
2022/06/07 03:04:54;;;;;;;;;27.00;23.33;;;;;15.28;100.00;99388.47;6282974;20;3590879;-59
2022/06/07 03:07:22;;;;;;;;;33.00;30.00;;;;;15.72;100.00;99391.91;6317492;20;3580948;-62
2022/06/07 03:09:51;;;;;;;;;27.67;25.33;;;;;14.99;100.00;99383.69;6280288;20;3594125;-58
2022/06/07 03:12:20;;;;;;;;;24.00;18.50;;;;;15.22;100.00;99383.56;6282844;20;2845190;-59
2022/06/07 03:14:49;;;;;;;;;19.00;19.00;;;;;15.25;100.00;99380.63;6281154;20;2834645;-63
2022/06/07 03:17:17;;;;;;;;;23.00;22.00;;;;;15.31;100.00;99389.03;6279945;20;2846126;-59
2022/06/07 03:19:47;;;;;;;;;23.00;21.67;;;;;15.30;100.00;99389.19;6280114;20;2841044;-58
2022/06/07 03:22:17;;;;;;;;;20.33;20.33;;;;;15.68;100.00;99396.66;6314015;20;3576295;-59
2022/06/07 03:24:46;;;;;;;;;25.00;22.00;;;;;15.65;100.00;99390.69;6281041;20;2837740;-58
2022/06/07 03:27:15;;;;;;;;;19.50;18.50;;;;;15.78;100.00;99397.63;6282310;20;2833589;-59
2022/06/07 03:29:43;;;;;;;;;21.00;18.00;;;;;16.10;99.33;99401.19;6280226;20;2823178;-59
2022/06/07 03:32:12;;;;;;;;;22.00;20.50;;;;;16.10;99.83;99398.47;6283023;20;2839869;-59
2022/06/07 03:34:41;;;;;;;;;22.00;20.50;;;;;16.31;99.96;99393.84;6281047;20;2850321;-58
2022/06/07 03:37:10;;;;;;;;;22.50;21.00;;;;;16.17;100.00;99391.53;6278491;20;2843071;-62
2022/06/07 03:39:39;;;;;;;;;19.50;19.50;;;;;16.39;100.00;99390.44;6272872;20;2850280;-62
2022/06/07 03:42:09;;;;;;;;;20.00;20.00;;;;;16.55;100.00;99392.59;6283033;20;2829521;-59
2022/06/07 03:44:37;;;;;;;;;19.33;17.33;;;;;16.70;100.00;99387.66;6283363;20;3555585;-61
2022/06/07 03:47:09;;;;;;;;;19.00;19.00;;;;;16.79;99.88;99392.25;6311467;20;2827342;-59
2022/06/07 03:49:37;;;;;;;;;19.00;16.00;;;;;16.94;99.26;99400.81;6279665;20;2496148;-58
2022/06/07 03:52:06;;;;;;;;;18.50;18.00;;;;;17.01;99.49;99393.81;6279011;20;2837772;-59
2022/06/07 03:54:36;;;;;;;;;18.00;18.00;;;;;17.07;99.22;99398.69;6280581;20;2831497;-63
2022/06/07 03:57:06;;;;;;;;;20.00;20.00;;;;;17.28;98.29;99385.81;6279105;20;2858575;-55
2022/06/07 03:59:36;;;;;;;;;21.00;18.50;;;;;17.25;99.31;99388.81;6271798;20;2824199;-60
2022/06/07 04:02:07;;;;;;;;;19.00;19.00;;;;;17.03;100.00;99386.38;6277698;20;2832538;-60
2022/06/07 04:04:37;;;;;;;;;17.00;17.00;;;;;17.00;100.00;99383.97;6309862;20;2828378;-60
2022/06/07 04:09:52;;;;;;;;;19.00;19.00;;;;;17.50;98.88;99384.63;6278978;20;2844045;-58
2022/06/07 04:12:21;;;;;;;;;19.00;18.00;;;;;17.58;98.32;99386.59;6278529;20;2837827;-61
2022/06/07 04:14:50;;;;;;;;;24.00;19.67;;;;;17.82;97.88;99385.28;6282673;20;3569096;-60
2022/06/07 04:17:19;;;;;;;;;22.67;22.67;;;;;17.89;97.40;99380.97;6276914;20;3591900;-60
2022/06/07 04:19:48;;;;;;;;;18.50;18.50;;;;;17.71;99.31;99378.16;6310248;20;2836779;-60
2022/06/07 04:22:18;;;;;;;;;24.33;24.33;;;;;17.73;99.77;99382.41;6280277;20;2850349;-60
2022/06/07 04:24:47;;;;;;;;;19.00;19.00;;;;;18.35;96.07;99390.94;6315472;20;3583567;-58
2022/06/07 04:27:15;;;;;;;;;19.00;18.00;;;;;18.43;93.87;99377.44;6280586;20;2839857;-60
2022/06/07 04:29:44;;;;;;;;;23.50;23.00;;;;;18.43;95.55;99391.03;6280603;20;2850377;-61
2022/06/07 04:32:13;;;;;;;;;18.50;18.50;;;;;18.34;95.51;99382.91;6279842;20;2832583;-60
2022/06/07 04:34:42;;;;;;;;;24.00;22.67;;;;;18.36;97.82;99373.59;6281375;20;3583615;-60
2022/06/07 04:37:11;;;;;;;;;20.33;17.67;;;;;18.72;95.25;99383.66;6310280;20;3572121;-60
2022/06/07 04:39:39;;;;;;;;;20.00;18.50;;;;;18.81;94.27;99380.06;6280941;20;2841911;-60
2022/06/07 04:42:07;;;;;;;;;14.00;13.50;;;;;19.10;92.39;99387.13;6282180;20;2801354;-60
2022/06/07 04:44:36;;;;;;;;;19.00;17.33;;;;;19.33;91.55;99382.91;6282341;20;3573619;-60
2022/06/07 04:47:06;;;;;;;;;9.80;9.80;;;;;19.48;90.58;99386.78;6306880;20;2773921;-60
2022/06/07 04:49:35;;;;;;;;;15.00;15.00;;;;;19.34;91.05;99384.59;6287765;20;2815940;-60
2022/06/07 04:52:04;;;;;;;;;16.00;16.00;;;;;19.57;91.02;99389.56;6288997;20;2828420;-60
2022/06/07 04:54:49;;;;;;;;;14.00;12.00;;;;;19.89;89.98;99391.66;6315297;20;3540984;-60
2022/06/07 04:57:18;;;;;;;;;13.00;12.33;;;;;19.93;87.93;99395.75;6283630;20;3511760;-61
2022/06/07 04:59:47;;;;;;;;;16.50;15.00;;;;;19.95;89.31;99396.44;6314628;20;2816939;-60
2022/06/07 05:02:16;;;;;;;;;14.33;14.33;;;;;19.89;89.23;99400.69;6283902;20;3537736;-60
2022/06/07 05:04:45;;;;;;;;;11.33;11.33;;;;;19.95;88.28;99402.75;6315844;20;2483641;-60
2022/06/07 05:07:14;;;;;;;;;12.00;11.00;;;;;20.11;87.21;99403.88;6317166;20;3511778;-60
2022/06/07 05:09:43;;;;;;;;;13.33;12.00;;;;;20.24;87.37;99403.41;6316278;20;2483624;-60
2022/06/07 05:12:11;;;;;;;;;13.00;13.00;;;;;20.59;86.27;99416.03;6317423;20;3525325;-60
2022/06/07 05:14:40;;;;;;;;;16.00;16.00;;;;;20.92;85.39;99416.13;6282855;20;2491933;-60
2022/06/07 05:17:09;;;;;;;;;14.67;14.67;;;;;21.05;84.95;99419.22;6287521;20;2483624;-60
2022/06/07 05:19:39;;;;;;;;;13.33;12.67;;;;;21.17;84.00;99423.34;6312376;20;3520130;-58
2022/06/07 05:22:08;;;;;;;;;15.67;14.00;;;;;21.33;86.77;99422.50;6317212;20;2491925;-58
2022/06/07 05:24:39;;;;;;;;;16.00;14.67;;;;;21.52;83.00;99415.84;6322883;20;2814901;-60
2022/06/07 05:27:18;;;;;;;;;12.67;11.33;;;;;21.37;83.61;99420.25;6318749;20;3533665;-60
2022/06/07 05:29:53;;;;;;;;;10.00;10.00;;;;;21.62;83.10;99416.53;6284469;20;3504502;-60
2022/06/07 05:32:22;;;;;;;;;11.67;10.33;;;;;21.95;82.63;99421.94;6319864;20;3514805;-58
2022/06/07 05:34:52;;;;;;;;;9.40;9.40;;;;;22.04;80.90;99420.91;6344275;20;2784649;-60
2022/06/07 05:37:23;;;;;;;;;10.00;8.60;;;;;22.29;80.69;99418.13;6313019;20;2767976;-60
2022/06/07 05:39:53;;;;;;;;;10.00;8.80;;;;;22.55;79.42;99413.22;6316667;20;2764885;-60
2022/06/07 05:42:22;;;;;;;;;8.40;8.40;;;;;22.43;79.71;99411.88;6316056;20;2756527;-59
2022/06/07 05:44:50;;;;;;;;;9.67;8.00;;;;;23.05;77.83;99422.03;6293776;20;2764929;-59
2022/06/07 05:47:19;;;;;;;;;10.00;9.00;;;;;22.89;78.37;99424.84;6319107;20;2769135;-61
2022/06/07 05:49:48;;;;;;;;;8.20;6.80;;;;;23.25;76.53;99425.16;6343379;20;2749206;-61
2022/06/07 05:52:19;;;;;;;;;6.40;6.40;;;;;23.45;75.29;99426.34;6313082;20;2736724;-58
2022/06/07 05:54:49;;;;;;;;;7.40;7.40;;;;;23.67;74.99;99429.22;6312683;20;2734619;-59
2022/06/07 05:57:17;;;;;;;;;6.33;6.33;;;;;23.11;76.00;99428.66;6288548;20;2743013;-58
2022/06/07 05:59:47;;;;;;;;;7.40;7.40;;;;;23.08;76.64;99429.03;6343925;20;2732562;-60
2022/06/07 06:02:15;;;;;;;;;7.00;7.00;;;;;23.64;75.09;99422.28;6291059;20;2740302;-60
2022/06/07 06:04:45;;;;;;;;;7.40;7.40;;;;;24.00;73.91;99423.47;6345662;20;2740307;-60
2022/06/07 06:07:13;;;;;;;;;7.33;6.67;;;;;24.10;73.68;99429.53;6290203;20;2742994;-59
2022/06/07 06:12:31;;;;;;;;;5.20;5.20;;;;;24.54;71.42;99425.97;6345660;20;2739874;-60
2022/06/07 06:15:01;;;;;;;;;9.00;7.00;;;;;24.71;71.79;99435.69;6314008;20;2738161;-51
2022/06/07 06:17:31;;;;;;;;;6.40;6.40;;;;;24.94;69.52;99424.56;6311322;20;2739863;-53
2022/06/07 06:20:01;;;;;;;;;5.20;5.20;;;;;24.94;70.02;99435.53;6314074;20;2745082;-52
2022/06/07 06:22:31;;;;;;;;;7.00;7.00;;;;;25.10;67.76;99431.72;6312872;20;2728391;-53
2022/06/07 06:24:59;;;;;;;;;6.67;6.67;;;;;25.35;67.37;99437.69;6290947;20;2736703;-59
2022/06/07 06:27:32;;;;;;;;;9.00;6.00;;;;;25.31;67.55;99432.81;6343079;20;2734617;-58
2022/06/07 06:30:02;;;;;;;;;8.60;7.80;;;;;25.50;67.29;99434.88;6313680;20;2734629;-57
2022/06/07 06:32:30;;;;;;;;;7.67;6.00;;;;;25.61;66.78;99428.84;6290024;20;2746075;-58
2022/06/07 06:35:00;;;;;;;;;5.40;4.80;;;;;26.02;66.29;99428.16;6346033;20;2749212;-59
2022/06/07 06:37:28;;;;;;;;;5.00;5.00;;;;;26.02;64.86;99430.91;6288499;20;2754448;-62
2022/06/07 06:39:57;;;;;;;;;7.67;7.67;;;;;26.26;64.92;99423.22;6322266;20;2739999;-59
2022/06/07 06:42:25;;;;;;;;;6.00;6.00;;;;;26.27;64.92;99423.00;6322512;20;2742071;-60
2022/06/07 06:44:55;;;;;;;;;8.00;8.00;;;;;26.55;64.42;99424.91;6318506;20;2746113;-60
2022/06/07 06:47:24;;;;;;;;;9.00;7.67;;;;;26.41;63.85;99423.97;6319657;20;2745165;-59
2022/06/07 06:49:52;;;;;;;;;8.00;8.00;;;;;26.29;64.56;99420.06;6318136;20;2750258;-60
2022/06/07 06:52:22;;;;;;;;;6.33;6.33;;;;;27.00;61.52;99424.44;6319708;20;2736747;-60
2022/06/07 06:54:51;;;;;;;;;9.00;8.00;;;;;27.39;61.47;99425.63;6319444;20;2740003;-60
2022/06/07 06:57:20;;;;;;;;;6.00;6.00;;;;;27.45;59.22;99431.13;6343296;20;2738779;-60
2022/06/07 06:59:52;;;;;;;;;6.67;6.67;;;;;27.60;60.57;99428.19;6288632;20;2738819;-59
2022/06/07 07:02:21;;;;;;;;;6.00;6.00;;;;;27.05;60.78;99424.66;6319683;20;2741915;-60
2022/06/07 07:04:49;;;;;;;;;6.00;6.00;;;;;27.79;58.88;99427.31;6320522;20;2747546;-60
2022/06/07 07:07:18;;;;;;;;;9.33;9.00;;;;;27.18;59.77;99424.72;6318130;20;2758623;-60
2022/06/07 07:09:47;;;;;;;;;7.00;6.00;;;;;27.98;57.62;99424.78;6319501;20;2744055;-60
2022/06/07 07:12:16;;;;;;;;;6.67;6.67;;;;;28.38;57.22;99430.25;6321799;20;2737802;-60
2022/06/07 07:14:46;;;;;;;;;7.00;7.00;;;;;27.33;57.46;99430.91;6321554;20;2738835;-61
2022/06/07 07:17:15;;;;;;;;;7.00;7.00;;;;;27.92;56.03;99433.94;6325626;20;2739869;-60
2022/06/07 07:19:43;;;;;;;;;10.00;7.33;;;;;28.45;56.50;99436.63;6319727;20;2749207;-60
2022/06/07 07:22:12;;;;;;;;;6.00;6.00;;;;;28.44;55.71;99435.78;6318936;20;2738934;-60
2022/06/07 07:24:41;;;;;;;;;7.67;7.67;;;;;28.74;55.31;99434.41;6320503;20;2751317;-60
2022/06/07 07:27:10;;;;;;;;;9.00;9.00;;;;;28.51;55.61;99427.47;6317900;20;2743988;-59
2022/06/07 07:29:38;;;;;;;;;9.00;8.00;;;;;28.89;56.01;99423.94;6319969;20;2748167;-60
2022/06/07 07:32:07;;;;;;;;;11.33;10.00;;;;;29.60;51.74;99433.09;6323175;20;2785755;-60
2022/06/07 07:34:36;;;;;;;;;8.67;8.67;;;;;29.29;50.75;99432.03;6320019;20;2740904;-60
2022/06/07 07:37:05;;;;;;;;;8.00;8.00;;;;;29.06;52.28;99429.81;6314205;20;2746165;-60
2022/06/07 07:39:34;;;;;;;;;8.00;8.00;;;;;28.32;55.04;99429.19;6320154;20;2742967;-59
2022/06/07 07:42:02;;;;;;;;;7.67;7.67;;;;;28.42;55.66;99420.47;6318504;20;2743017;-60
2022/06/07 07:44:31;;;;;;;;;9.00;9.00;;;;;28.82;54.74;99425.88;6317361;20;2751376;-60
2022/06/07 07:46:59;;;;;;;;;10.00;10.00;;;;;29.26;53.94;99421.41;6315548;20;3505667;-60
2022/06/07 07:49:30;;;;;;;;;9.67;9.67;;;;;29.59;52.08;99425.84;6317778;20;2775246;-60
2022/06/07 07:51:58;;;;;;;;;10.00;9.00;;;;;29.24;52.71;99416.09;6316401;20;3481470;-60
2022/06/07 07:54:28;;;;;;;;;7.33;7.00;;;;;29.27;52.20;99412.88;6319569;20;2750279;-59
2022/06/07 07:56:56;;;;;;;;;11.00;9.00;;;;;28.93;52.91;99410.50;6315601;20;3494270;-60
2022/06/07 07:59:26;;;;;;;;;9.67;9.33;;;;;28.93;53.30;99416.03;6320106;20;2756958;-61
2022/06/07 08:01:54;;;;;;;;;14.00;11.00;;;;;29.27;52.20;99412.03;6316557;20;3520101;-61
2022/06/07 08:04:24;;;;;;;;;9.67;9.67;;;;;29.63;50.69;99407.75;6287755;20;2483649;-61
2022/06/07 08:06:53;;;;;;;;;11.33;10.33;;;;;29.56;50.54;99418.00;6315892;20;3514809;-61
2022/06/07 08:09:23;;;;;;;;;10.50;10.50;;;;;29.56;51.34;99409.69;6318937;20;2808015;-61
2022/06/07 08:11:51;;;;;;;;;11.00;11.00;;;;;29.92;48.60;99415.38;6314521;20;3526357;-51
2022/06/07 08:14:23;;;;;;;;;11.67;10.00;;;;;29.57;52.03;99411.38;6314842;20;3509602;-50
2022/06/07 08:16:54;;;;;;;;;11.00;11.00;;;;;29.57;50.78;99411.38;6314019;20;2807568;-52
2022/06/07 08:19:22;;;;;;;;;10.00;10.00;;;;;29.95;50.61;99406.63;6285023;20;2483568;-50
2022/06/07 08:21:50;;;;;;;;;13.67;12.00;;;;;30.16;48.08;99405.34;6319301;20;2483669;-51
2022/06/07 08:24:26;;;;;;;;;12.00;12.00;;;;;30.08;46.29;99413.09;6323140;20;2483631;-48
2022/06/07 08:26:55;;;;;;;;;13.00;13.00;;;;;29.87;46.89;99409.69;6321967;20;3530693;-50
2022/06/07 08:29:24;;;;;;;;;11.00;11.00;;;;;29.64;47.38;99403.88;6321162;20;3514815;-48
2022/06/07 08:31:52;;;;;;;;;12.00;12.00;;;;;30.06;47.56;99402.25;6294147;20;3521214;-48
2022/06/07 08:39:57;;;;;;;;;12.00;11.00;;;;;29.48;47.02;99399.75;6320967;20;2792986;-47
2022/06/07 08:42:33;;;;;;;;;12.00;12.00;;;;;30.19;47.38;99401.28;6285763;20;3520214;-50
2022/06/07 08:45:08;;;;;;;;;13.00;13.00;;;;;30.04;46.20;99400.78;6321599;20;3523172;-50
2022/06/07 08:47:54;;;;;;;;;11.00;10.00;;;;;30.08;46.41;99393.72;6320849;20;3509608;-57
2022/06/07 08:50:50;;;;;;;;;10.67;10.67;;;;;30.69;42.32;99392.81;6316904;20;3509621;-48
2022/06/07 08:53:38;;;;;;;;;12.33;12.33;;;;;30.92;42.64;99391.28;6315668;20;3524266;-50
2022/06/07 08:56:24;;;;;;;;;12.00;12.00;;;;;30.84;43.79;99386.91;6288907;20;3517029;-47
2022/06/07 08:58:59;;;;;;;;;12.33;10.67;;;;;30.54;44.61;99378.50;6287161;20;3525368;-52
2022/06/07 09:01:51;;;;;;;;;13.50;11.50;;;;;30.50;42.03;99382.84;6287253;20;2800261;-52
2022/06/07 09:04:36;;;;;;;;;10.67;10.67;;;;;30.37;44.10;99384.69;6289812;20;3522089;-52
2022/06/07 09:07:19;;;;;;;;;16.33;15.00;;;;;30.60;43.48;99375.69;6288289;20;3536858;-54
2022/06/07 09:12:59;;;;;;;;;11.00;11.00;;;;;30.55;42.68;99375.53;6288178;20;3519001;-50
2022/06/07 09:15:32;;;;;;;;;7.33;7.00;;;;;30.88;41.88;99367.88;6329468;20;2746166;-51
2022/06/07 09:18:06;;;;;;;;;10.67;10.67;;;;;30.47;43.79;99372.22;6317149;20;3504499;-50
2022/06/07 09:20:53;;;;;;;;;10.33;10.33;;;;;30.87;40.07;99366.19;6324430;20;3491923;-56
2022/06/07 09:23:43;;;;;;;;;10.00;8.67;;;;;30.74;38.74;99368.03;6330236;20;2762760;-50
2022/06/07 09:26:27;;;;;;;;;11.00;10.00;;;;;30.90;39.65;99361.00;6319711;20;2784717;-49
2022/06/07 09:29:21;;;;;;;;;10.67;10.67;;;;;31.04;40.27;99370.84;6318054;20;3500278;-58
2022/06/07 09:31:51;;;;;;;;;11.33;10.67;;;;;30.97;37.03;99358.16;6288691;20;3505435;-59
2022/06/07 09:34:26;;;;;;;;;9.67;9.67;;;;;31.29;37.09;99358.72;6287192;20;3495174;-58
2022/06/07 09:37:25;;;;;;;;;12.33;10.67;;;;;31.80;36.52;99357.25;6317640;20;3519085;-59
2022/06/07 09:40:30;;;;;;;;;11.67;11.67;;;;;30.82;36.66;99348.31;6316772;20;3529637;-60
2022/06/07 09:43:20;;;;;;;;;11.00;8.00;;;;;30.81;37.55;99348.56;6290930;20;2766936;-60
2022/06/07 09:46:07;;;;;;;;;11.00;11.00;;;;;30.81;36.35;99340.25;6322575;20;2788799;-59
2022/06/07 09:48:45;;;;;;;;;8.67;8.67;;;;;30.65;36.97;99347.28;6316085;20;3454443;-59
2022/06/07 09:51:24;;;;;;;;;8.67;8.67;;;;;31.19;35.93;99337.09;6325893;20;2749199;-59
2022/06/07 09:54:02;;;;;;;;;6.00;6.00;;;;;31.09;36.14;99336.84;6319765;20;2746185;-59
2022/06/07 09:57:22;;;;;;;;;9.67;9.67;;;;;31.77;36.05;99338.28;6317599;20;3491965;-59
2022/06/07 10:00:08;;;;;;;;;11.00;9.67;;;;;31.97;35.89;99328.78;6315479;20;2791010;-59
2022/06/07 10:03:04;;;;;;;;;10.00;10.00;;;;;31.72;36.20;99327.06;6319092;20;2483742;-60
2022/06/07 10:05:47;;;;;;;;;9.00;9.00;;;;;30.87;37.67;99325.44;6319190;20;2754433;-59
2022/06/07 10:08:47;;;;;;;;;12.00;12.00;;;;;30.21;38.53;99313.25;6320821;20;3529474;-58
2022/06/07 10:12:19;;;;;;;;;12.00;12.00;;;;;30.13;37.21;99310.81;6314610;20;3519090;-59
2022/06/07 10:15:37;;;;;;;;;8.67;8.67;;;;;31.72;36.18;99318.72;6317971;20;2749206;-58
2022/06/07 10:18:48;;;;;;;;;8.67;8.67;;;;;31.51;36.47;99316.56;6317932;20;3465900;-58
2022/06/07 10:21:54;;;;;;;;;11.00;9.50;;;;;31.31;36.28;99316.84;6313633;20;2780462;-59
2022/06/07 10:25:14;;;;;;;;;9.00;9.00;;;;;31.04;34.58;99308.97;6325475;20;2762737;-59
2022/06/07 10:28:21;;;;;;;;;10.67;10.67;;;;;30.04;38.96;99310.25;6320534;20;3514826;-59
2022/06/07 10:31:37;;;;;;;;;11.00;11.00;;;;;31.52;35.31;99312.69;6312271;20;3504489;-59
2022/06/07 10:34:46;;;;;;;;;12.33;12.33;;;;;31.52;37.31;99308.00;6286033;20;3514844;-60
2022/06/07 10:38:00;;;;;;;;;13.00;10.00;;;;;31.42;36.77;99304.97;6317344;20;2810689;-59
2022/06/07 10:41:10;;;;;;;;;10.33;10.33;;;;;30.15;37.29;99292.03;6281991;20;3494088;-58
2022/06/07 10:44:05;;;;;;;;;9.67;9.67;;;;;30.32;37.57;99293.13;6319035;20;2483688;-58
2022/06/07 10:46:41;;;;;;;;;12.33;12.33;;;;;30.08;37.92;99296.81;6313019;20;3526291;-58
2022/06/07 10:49:12;;;;;;;;;11.00;11.00;;;;;30.71;39.27;99285.34;6315507;20;2788797;-58
2022/06/07 10:55:09;;;;;;;;;10.67;10.67;;;;;30.40;37.51;99278.09;6282311;20;3508620;-59
2022/06/07 10:58:36;;;;;;;;;14.00;12.00;;;;;29.80;39.66;99273.25;6318238;20;3536734;-58
2022/06/07 11:01:30;;;;;;;;;10.00;10.00;;;;;29.65;40.68;99268.13;6281994;20;3515841;-58
2022/06/07 11:11:14;;;;;;;;;9.00;9.00;;;;;29.20;40.04;99253.59;6284952;20;2749262;-60
2022/06/07 11:14:33;;;;;;;;;12.00;12.00;;;;;29.96;39.15;99256.06;6312996;20;3535681;-58
2022/06/07 11:17:35;;;;;;;;;10.00;10.00;;;;;29.53;40.68;99247.75;6288818;20;2786795;-58
2022/06/07 11:20:19;;;;;;;;;8.67;8.00;;;;;29.45;38.69;99250.84;6318260;20;2739854;-58
2022/06/07 11:23:12;;;;;;;;;12.67;11.00;;;;;28.75;41.68;99245.44;6321443;20;2792059;-59
2022/06/07 11:26:04;;;;;;;;;9.00;9.00;;;;;29.29;39.96;99249.50;6314055;20;2739859;-59
2022/06/07 11:28:42;;;;;;;;;10.00;10.00;;;;;29.16;40.06;99239.41;6323025;20;2786847;-58
2022/06/07 11:31:39;;;;;;;;;11.00;11.00;;;;;29.23;41.47;99233.81;6313129;20;3529408;-58
2022/06/07 11:34:13;;;;;;;;;11.33;9.00;;;;;29.45;40.53;99239.75;6282341;20;2774342;-58
2022/06/07 11:36:44;;;;;;;;;10.67;10.67;;;;;29.56;38.88;99238.16;6320832;20;2794016;-58
2022/06/07 11:39:42;;;;;;;;;11.67;11.67;;;;;29.75;39.37;99234.34;6314208;20;3526293;-58
2022/06/07 11:42:17;;;;;;;;;10.00;10.00;;;;;29.83;39.05;99233.19;6314828;20;2789899;-58
2022/06/07 11:44:57;;;;;;;;;9.00;9.00;;;;;29.76;38.70;99227.75;6316372;20;3473231;-59
2022/06/07 11:47:44;;;;;;;;;10.00;10.00;;;;;30.19;36.50;99230.41;6319727;20;2483735;-59
2022/06/07 11:50:46;;;;;;;;;10.00;10.00;;;;;30.30;39.39;99214.94;6311763;20;3517930;-58
2022/06/07 11:53:32;;;;;;;;;9.00;9.00;;;;;29.60;38.21;99217.28;6315782;20;2750233;-59
2022/06/07 11:56:25;;;;;;;;;11.00;11.00;;;;;30.29;40.59;99217.97;6313520;20;3515864;-59
2022/06/07 11:59:20;;;;;;;;;9.00;8.33;;;;;30.35;38.88;99214.25;6314021;20;3472186;-58
2022/06/07 12:02:15;;;;;;;;;9.00;8.00;;;;;31.20;38.23;99211.22;6318477;20;2753383;-58
2022/06/07 12:04:43;;;;;;;;;11.00;10.00;;;;;30.41;38.46;99202.22;6314762;20;3519004;-58
2022/06/07 12:08:13;;;;;;;;;9.00;9.00;;;;;31.76;37.75;99208.91;6320087;20;2479876;-59
2022/06/07 12:11:02;;;;;;;;;10.67;10.67;;;;;31.78;34.48;99201.19;6312424;20;3510664;-58
2022/06/07 12:13:52;;;;;;;;;9.67;9.67;;;;;31.29;36.22;99192.28;6314079;20;2785720;-59